Time;durP1;ratioP1;P1;durP2;ratioP2;P2;SDS_P1;SDS_P2;PMS_P1;PMS_P2;Temp;Humidity;BMP_temperature;BMP_pressure;BME280_temperature;BME280_humidity;BME280_pressure;Samples;Min_cycle;Max_cycle;Signal;HPM_P1;HPM_P2
2022/09/21 00:01:28;;;;;;;4.30;2.97;;;;;;;;;;5122904;27;20023;-68
2022/09/21 00:03:54;;;;;;;5.22;3.33;;;;;;;;;;5115553;27;20280;-68
2022/09/21 00:06:20;;;;;;;4.85;2.95;;;;;;;;;;5105637;27;20027;-68
2022/09/21 00:08:46;;;;;;;3.38;2.28;;;;;;;;;;5113687;27;20401;-68
2022/09/21 00:11:15;;;;;;;2.88;2.10;;;;;;;;;;5120910;27;20031;-68
2022/09/21 00:13:42;;;;;;;4.95;2.20;;;;;;;;;;5120853;27;20031;-69
2022/09/21 00:16:08;;;;;;;2.70;1.83;;;;;;;;;;5120515;27;20029;-69
2022/09/21 00:18:34;;;;;;;5.50;2.90;;;;;;;;;;5118726;27;20016;-68
2022/09/21 00:21:00;;;;;;;8.18;3.17;;;;;;;;;;5114849;27;20111;-69
2022/09/21 00:23:25;;;;;;;4.07;2.47;;;;;;;;;;5118230;27;20131;-68
2022/09/21 00:25:50;;;;;;;3.60;2.58;;;;;;;;;;5100078;27;20133;-68
2022/09/21 00:28:16;;;;;;;6.20;2.90;;;;;;;;;;5120235;27;20047;-68
2022/09/21 00:30:41;;;;;;;4.73;2.93;;;;;;;;;;5120603;27;20143;-69
2022/09/21 00:33:06;;;;;;;7.43;3.20;;;;;;;;;;5118323;27;20027;-69
2022/09/21 00:35:32;;;;;;;4.73;3.13;;;;;;;;;;5120787;27;20039;-68
2022/09/21 00:38:01;;;;;;;4.88;3.00;;;;;;;;;;5117934;27;20788;-68
2022/09/21 00:40:26;;;;;;;5.63;3.03;;;;;;;;;;5121765;27;20019;-68
2022/09/21 00:42:52;;;;;;;5.22;3.22;;;;;;;;;;5102715;28;20037;-68
2022/09/21 00:45:20;;;;;;;8.83;3.60;;;;;;;;;;5119361;27;20031;-69
2022/09/21 00:47:46;;;;;;;7.93;3.35;;;;;;;;;;5117161;27;20038;-68
2022/09/21 00:50:14;;;;;;;5.38;2.95;;;;;;;;;;5119005;27;20035;-69
2022/09/21 00:52:42;;;;;;;5.90;3.00;;;;;;;;;;5108029;27;20023;-69
2022/09/21 00:55:09;;;;;;;6.70;3.28;;;;;;;;;;5100529;27;20032;-68
2022/09/21 00:57:34;;;;;;;6.57;2.90;;;;;;;;;;5118799;27;20034;-68
2022/09/21 01:00:01;;;;;;;4.35;2.85;;;;;;;;;;5117549;27;20035;-68
2022/09/21 01:02:27;;;;;;;3.58;2.30;;;;;;;;;;5114336;27;20042;-68
2022/09/21 01:04:53;;;;;;;6.05;2.58;;;;;;;;;;5123059;27;20405;-68
2022/09/21 01:07:20;;;;;;;4.72;2.60;;;;;;;;;;5116689;27;20060;-68
2022/09/21 01:09:47;;;;;;;3.08;2.33;;;;;;;;;;5114770;27;20093;-68
2022/09/21 01:12:20;;;;;;;4.15;2.63;;;;;;;;;;5117843;27;20389;-68
2022/09/21 01:15:03;;;;;;;4.10;2.50;;;;;;;;;;5118797;27;20488;-68
2022/09/21 01:17:35;;;;;;;2.90;2.22;;;;;;;;;;5115746;27;20118;-68
2022/09/21 01:20:15;;;;;;;1.88;1.60;;;;;;;;;;5124825;27;20023;-69
2022/09/21 01:22:49;;;;;;;1.77;1.40;;;;;;;;;;5114132;27;20075;-68
2022/09/21 01:25:33;;;;;;;1.83;1.40;;;;;;;;;;5115323;27;20039;-68
2022/09/21 01:28:01;;;;;;;1.60;1.40;;;;;;;;;;5120117;27;20023;-68
2022/09/21 01:30:28;;;;;;;1.98;1.40;;;;;;;;;;5109608;27;20046;-68
2022/09/21 01:32:55;;;;;;;1.83;1.30;;;;;;;;;;5088697;27;20110;-68
2022/09/21 01:35:23;;;;;;;1.60;1.40;;;;;;;;;;5105693;27;20064;-68
2022/09/21 01:37:52;;;;;;;2.38;1.55;;;;;;;;;;5115153;27;20039;-69
2022/09/21 01:40:24;;;;;;;1.77;1.55;;;;;;;;;;5114954;27;20111;-68
2022/09/21 01:42:50;;;;;;;1.88;1.40;;;;;;;;;;5117599;27;20565;-68
2022/09/21 01:45:19;;;;;;;2.58;1.70;;;;;;;;;;5118024;27;20098;-68
2022/09/21 01:47:46;;;;;;;4.88;1.95;;;;;;;;;;5115400;27;20027;-68
2022/09/21 01:50:11;;;;;;;4.35;1.90;;;;;;;;;;5119607;27;20031;-68
2022/09/21 01:52:57;;;;;;;2.45;1.90;;;;;;;;;;5105032;27;20023;-67
2022/09/21 01:55:42;;;;;;;5.03;2.20;;;;;;;;;;5105027;27;20077;-69
2022/09/21 01:58:11;;;;;;;3.72;1.77;;;;;;;;;;5116489;27;20035;-68
2022/09/21 02:00:38;;;;;;;2.35;2.05;;;;;;;;;;5117848;27;20469;-67
2022/09/21 02:03:06;;;;;;;2.67;2.13;;;;;;;;;;5118261;27;20080;-69
2022/09/21 02:05:32;;;;;;;3.50;2.08;;;;;;;;;;5116142;27;20015;-69
2022/09/21 02:07:58;;;;;;;2.53;2.17;;;;;;;;;;5118166;27;20084;-68
2022/09/21 02:10:32;;;;;;;7.95;2.85;;;;;;;;;;5118018;27;20019;-69
2022/09/21 02:13:00;;;;;;;4.57;3.55;;;;;;;;;;5115966;27;20050;-68
2022/09/21 02:15:30;;;;;;;5.28;3.92;;;;;;;;;;5114499;27;20027;-69
2022/09/21 02:18:05;;;;;;;6.53;3.88;;;;;;;10.13;nan;100802.91;5113278;27;20050;-68
2022/09/21 02:20:38;;;;;;;3.63;3.03;;;;;;;10.12;nan;100788.13;5118454;27;20506;-68
2022/09/21 02:23:15;;;;;;;4.53;3.22;;;;;;;;;;5097396;28;20048;-68
2022/09/21 02:25:41;;;;;;;5.28;3.67;;;;;;;;;;5098662;28;20539;-68
2022/09/21 02:28:32;;;;;;;5.00;3.13;;;;;;;;;;5094933;28;20068;-68
2022/09/21 02:31:33;;;;;;;4.78;3.28;;;;;;;;;;5101019;28;20043;-67
2022/09/21 02:34:03;;;;;;;3.70;2.95;;;;;;;;;;5004914;28;20120;-68
2022/09/21 02:36:49;;;;;;;4.32;3.60;;;;;;;;;;5005838;28;20048;-68
2022/09/21 02:39:16;;;;;;;4.45;3.30;;;;;;;;;;5006063;28;20116;-68
2022/09/21 02:41:47;;;;;;;3.63;3.03;;;;;;;;;;5006778;28;20042;-68
2022/09/21 02:44:22;;;;;;;6.38;2.80;;;;;;;;;;4990560;28;20038;-67
2022/09/21 02:46:54;;;;;;;5.07;3.13;;;;;;;;;;5005168;28;20038;-66
2022/09/21 02:49:25;;;;;;;4.03;2.85;;;;;;;;;;4988948;28;20120;-68
2022/09/21 02:51:52;;;;;;;3.78;2.95;;;;;;;;;;4997729;28;20033;-69
2022/09/21 02:54:19;;;;;;;4.05;2.80;;;;;;;;;;5003932;28;20038;-69
2022/09/21 02:56:46;;;;;;;3.95;3.15;;;;;;;;;;5007282;28;20030;-69
2022/09/21 02:59:12;;;;;;;4.38;3.05;;;;;;;;;;5006435;28;20084;-68
2022/09/21 03:01:38;;;;;;;6.38;3.50;;;;;;;;;;5006015;28;20033;-68
2022/09/21 03:04:04;;;;;;;24.33;14.45;;;;;;;;;;5003256;28;20026;-68
2022/09/21 03:06:30;;;;;;;25.93;16.37;;;;;;;;;;5006390;28;20037;-69
2022/09/21 03:08:56;;;;;;;21.13;14.15;;;;;;;;;;5091585;28;20484;-68
2022/09/21 03:11:22;;;;;;;18.52;12.10;;;;;;;;;;5099400;28;20031;-68
2022/09/21 03:13:47;;;;;;;14.00;8.32;;;;;;;;;;5102569;28;20461;-68
2022/09/21 03:16:12;;;;;;;7.13;5.45;;;;;;;;;;5091772;28;20588;-69
2022/09/21 03:18:39;;;;;;;7.38;4.97;;;;;;;;;;5094678;28;20070;-69
2022/09/21 03:21:05;;;;;;;7.32;4.72;;;;;;;;;;5097167;28;20390;-68
2022/09/21 03:23:30;;;;;;;5.68;4.47;;;;;;;;;;5113199;27;20051;-68
2022/09/21 03:25:55;;;;;;;6.60;4.40;;;;;;;;;;5118919;27;20104;-69
2022/09/21 03:28:21;;;;;;;6.00;3.93;;;;;;;;;;5121331;27;20280;-67
2022/09/21 03:30:50;;;;;;;6.18;4.20;;;;;;;;;;5123658;27;20037;-69
2022/09/21 03:33:16;;;;;;;5.35;3.88;;;;;;;;;;5109699;27;21211;-69
2022/09/21 03:35:41;;;;;;;6.93;4.07;;;;;;;;;;5119252;27;20036;-68
2022/09/21 03:38:07;;;;;;;7.63;4.10;;;;;;;9.93;nan;100818.78;5117381;27;20023;-68
2022/09/21 03:40:32;;;;;;;13.43;6.95;;;;;;;;;;5118921;27;20031;-68
2022/09/21 03:42:57;;;;;;;10.20;6.88;;;;;;;;;;5116950;27;20069;-67
2022/09/21 03:45:26;;;;;;;8.20;6.17;;;;;;;;;;5118714;27;20062;-68
2022/09/21 03:47:55;;;;;;;8.93;6.28;;;;;;;;;;5115049;27;20080;-69
2022/09/21 03:50:21;;;;;;;;;;;;;;;;;;5118479;27;20080;-69
2022/09/21 03:52:46;;;;;;;7.18;5.38;;;;;;;;;;5112673;27;19919;-69
2022/09/21 03:55:11;;;;;;;7.47;5.77;;;;;;;;;;5119568;27;20055;-68
2022/09/21 03:57:37;;;;;;;8.17;5.90;;;;;;;;;;5116639;27;20764;-68
2022/09/21 04:00:04;;;;;;;10.45;6.30;;;;;;;;;;5125777;27;20325;-68
2022/09/21 04:02:30;;;;;;;7.93;6.18;;;;;;;;;;5113598;27;20031;-69
2022/09/21 04:04:56;;;;;;;10.77;6.90;;;;;;;;;;5116550;27;20020;-69
2022/09/21 04:07:21;;;;;;;13.00;6.87;;;;;;;;;;5122566;27;20034;-69
2022/09/21 04:09:46;;;;;;;9.40;6.63;;;;;;;;;;5117261;27;20752;-69
2022/09/21 04:12:11;;;;;;;10.90;6.97;;;;;;;;;;5120491;27;20503;-69
2022/09/21 04:14:37;;;;;;;10.80;6.22;;;;;;;;;;5116690;27;20437;-68
2022/09/21 04:17:02;;;;;;;9.40;6.82;;;;;;;;;;5115832;27;20023;-69
2022/09/21 04:19:27;;;;;;;12.07;7.25;;;;;;;;;;5123731;27;20119;-69
2022/09/21 04:21:54;;;;;;;10.60;7.50;;;;;;;;;;5116041;27;20424;-69
2022/09/21 04:24:20;;;;;;;11.43;7.60;;;;;;;;;;5116971;27;20433;-69
2022/09/21 04:26:45;;;;;;;12.13;7.45;;;;;;;;;;5111978;27;20107;-69
2022/09/21 04:29:11;;;;;;;12.33;8.70;;;;;;;;;;5114074;27;20020;-68
2022/09/21 04:31:36;;;;;;;12.93;8.68;;;;;;;;;;5120405;27;20028;-68
2022/09/21 04:34:02;;;;;;;13.47;8.57;;;;;;;;;;5105384;27;20378;-67
2022/09/21 04:36:28;;;;;;;15.87;8.77;;;;;;;;;;5118363;27;20051;-69
2022/09/21 04:38:53;;;;;;;13.00;8.45;;;;;;;;;;5112098;27;20024;-68
2022/09/21 04:41:18;;;;;;;13.20;8.87;;;;;;;;;;5118952;27;20024;-69
2022/09/21 04:43:44;;;;;;;14.70;9.45;;;;;;;;;;5118827;27;20020;-68
2022/09/21 04:46:12;;;;;;;15.55;9.32;;;;;;;;;;5121360;27;20144;-68
2022/09/21 04:48:38;;;;;;;16.50;10.68;;;;;;;;;;5118818;27;20449;-69
2022/09/21 04:51:05;;;;;;;18.23;10.80;;;;;;;;;;5120432;27;20103;-69
2022/09/21 04:53:30;;;;;;;22.75;12.68;;;;;;;;;;5114817;27;20076;-68
2022/09/21 04:55:55;;;;;;;20.45;12.57;;;;;;;;;;5117778;27;20019;-69
2022/09/21 04:58:21;;;;;;;19.95;11.85;;;;;;;;;;5121143;27;20027;-68
2022/09/21 05:00:50;;;;;;;18.42;10.77;;;;;;;;;;5122430;27;20027;-67
2022/09/21 05:03:16;;;;;;;17.98;10.63;;;;;;;;;;5116712;27;20023;-68
2022/09/21 05:05:45;;;;;;;15.27;10.68;;;;;;;;;;5116505;27;20476;-66
2022/09/21 05:08:11;;;;;;;14.27;10.27;;;;;;;;;;5120635;27;20534;-65
2022/09/21 05:10:36;;;;;;;15.63;10.57;;;;;;;;;;5118894;27;20035;-65
2022/09/21 05:13:01;;;;;;;14.35;10.32;;;;;;;;;;5121345;27;20366;-68
2022/09/21 05:15:26;;;;;;;15.50;9.73;;;;;;;;;;5105199;27;20059;-67
2022/09/21 05:17:52;;;;;;;13.60;9.57;;;;;;;;;;5105566;27;20492;-68
2022/09/21 05:20:17;;;;;;;19.87;10.23;;;;;;;;;;5114619;27;20102;-68
2022/09/21 05:22:42;;;;;;;12.93;9.53;;;;;;;;;;5118924;27;20419;-68
2022/09/21 05:25:08;;;;;;;864.33;99.13;;;;;;;;;;5107034;27;20282;-68
2022/09/21 05:27:33;;;;;;;632.03;73.00;;;;;;;;;;5117442;27;20084;-67
2022/09/21 05:29:58;;;;;;;18.80;12.53;;;;;;;;;;5119011;27;20419;-68
2022/09/21 05:32:24;;;;;;;18.73;10.70;;;;;;;;;;5106278;27;20115;-67
2022/09/21 05:34:55;;;;;;;14.57;9.90;;;;;;;;;;5116105;27;20031;-68
2022/09/21 05:37:39;;;;;;;12.30;9.00;;;;;;;;;;5116695;27;20031;-68
2022/09/21 05:40:04;;;;;;;14.30;8.85;;;;;;;;;;5115871;27;20099;-69
2022/09/21 05:42:30;;;;;;;13.63;8.85;;;;;;;;;;5086619;27;20137;-69
2022/09/21 05:44:55;;;;;;;12.70;8.68;;;;;;;;;;5115714;27;20077;-69
2022/09/21 05:47:38;;;;;;;14.38;9.13;;;;;;;;;;5115041;27;20098;-70
2022/09/21 05:50:09;;;;;;;12.30;9.07;;;;;;;;;;5119676;27;20034;-66
2022/09/21 05:52:41;;;;;;;13.23;9.77;;;;;;;;;;5121338;27;20358;-65
2022/09/21 05:55:26;;;;;;;14.52;10.00;;;;;;;;;;5113189;27;20023;-67
2022/09/21 05:58:02;;;;;;;17.50;10.57;;;;;;;;;;5109082;27;20486;-69
2022/09/21 06:00:34;;;;;;;13.75;9.60;;;;;;;;;;5119888;27;20034;-68
2022/09/21 06:03:17;;;;;;;16.38;10.68;;;;;;;;;;5121825;27;20079;-68
2022/09/21 06:05:43;;;;;;;17.38;11.18;;;;;;;;;;5109531;27;20396;-67
2022/09/21 06:08:08;;;;;;;18.60;11.77;;;;;;;;;;5122168;27;20026;-65
2022/09/21 06:10:34;;;;;;;18.17;11.33;;;;;;;;;;5118515;27;20030;-65
2022/09/21 06:12:59;;;;;;;22.55;11.93;;;;;;;;;;5122377;27;20338;-64
2022/09/21 06:15:24;;;;;;;18.77;12.05;;;;;;;;;;5119988;27;20397;-66
2022/09/21 06:17:50;;;;;;;19.00;11.33;;;;;;;;;;5101258;28;20030;-64
2022/09/21 06:20:15;;;;;;;18.70;11.97;;;;;;;;;;5103667;28;20031;-68
2022/09/21 06:22:40;;;;;;;20.30;12.57;;;;;;;;;;5115828;27;20291;-68
2022/09/21 06:25:06;;;;;;;17.47;11.60;;;;;;;;;;5106926;27;20023;-69
2022/09/21 06:27:31;;;;;;;18.35;12.25;;;;;;;;;;5116002;27;20351;-68
2022/09/21 06:29:56;;;;;;;19.83;12.00;;;;;;;;;;5102976;28;20055;-68
2022/09/21 06:32:22;;;;;;;24.60;12.33;;;;;;;;;;5119577;27;20372;-68
2022/09/21 06:34:48;;;;;;;22.77;12.95;;;;;;;;;;5097138;28;20276;-67
2022/09/21 06:37:13;;;;;;;22.35;12.73;;;;;;;;;;5123283;28;20065;-67
2022/09/21 06:39:39;;;;;;;19.50;12.17;;;;;;;;;;5102589;28;20058;-68
2022/09/21 06:42:04;;;;;;;19.55;12.38;;;;;;;;;;5114678;28;20340;-68
2022/09/21 06:44:29;;;;;;;25.23;13.20;;;;;;;;;;5096402;28;20568;-68
2022/09/21 06:46:55;;;;;;;22.20;14.55;;;;;;;9.98;nan;100948.69;5102389;28;20050;-68
2022/09/21 06:49:20;;;;;;;23.20;14.82;;;;;;;;;;5118812;28;20027;-70
2022/09/21 06:51:48;;;;;;;23.98;14.73;;;;;;;;;;5110443;28;20053;-68
2022/09/21 06:54:14;;;;;;;18.70;13.00;;;;;;;;;;5118802;28;20480;-67
2022/09/21 06:56:42;;;;;;;18.10;11.37;;;;;;;;;;5121915;27;20039;-67
2022/09/21 06:59:07;;;;;;;14.77;10.15;;;;;;;;;;5116049;27;20500;-69
2022/09/21 07:01:32;;;;;;;14.15;8.85;;;;;;;;;;5118822;27;20027;-69
2022/09/21 07:03:57;;;;;;;13.93;9.20;;;;;;;;;;5119348;27;20039;-68
2022/09/21 07:06:22;;;;;;;13.43;9.47;;;;;;;;;;5123287;27;20027;-68
2022/09/21 07:08:51;;;;;;;12.00;8.97;;;;;;;;;;5124842;27;20019;-67
2022/09/21 07:11:16;;;;;;;12.32;9.02;;;;;;;;;;5103962;27;20363;-67
2022/09/21 07:13:41;;;;;;;14.23;9.33;;;;;;;;;;5110985;27;20520;-69
2022/09/21 07:16:08;;;;;;;14.50;9.33;;;;;;;;;;5118368;27;20098;-68
2022/09/21 07:18:33;;;;;;;14.23;9.05;;;;;;;;;;5113283;27;20310;-67
2022/09/21 07:21:05;;;;;;;13.40;9.57;;;;;;;;;;5122864;27;20051;-67
2022/09/21 07:23:30;;;;;;;13.23;9.07;;;;;;;;;;5119191;27;20092;-68
2022/09/21 07:25:59;;;;;;;15.98;9.07;;;;;;;;;;5101192;27;20481;-69
2022/09/21 07:28:24;;;;;;;15.75;9.43;;;;;;;;;;5114198;27;20027;-69
2022/09/21 07:30:50;;;;;;;16.00;10.10;;;;;;;;;;5118963;27;20635;-69
2022/09/21 07:33:15;;;;;;;13.35;9.43;;;;;;;;;;5123443;27;20022;-69
2022/09/21 07:35:49;;;;;;;15.17;10.03;;;;;;;;;;5107102;27;20031;-68
2022/09/21 07:38:14;;;;;;;16.52;11.45;;;;;;;;;;5124027;27;20752;-68
2022/09/21 07:40:39;;;;;;;17.67;11.97;;;;;;;;;;5122880;27;20038;-68
2022/09/21 07:43:05;;;;;;;20.13;12.00;;;;;;;;;;5122698;27;20076;-68
2022/09/21 07:45:30;;;;;;;13.95;10.10;;;;;;;;;;5124419;27;20297;-68
2022/09/21 07:48:01;;;;;;;15.73;9.87;;;;;;;;;;5118182;27;20023;-67
2022/09/21 07:50:26;;;;;;;13.93;9.95;;;;;;;;;;5120327;27;20051;-69
2022/09/21 07:52:51;;;;;;;17.23;12.20;;;;;;;;;;5123075;27;20058;-69
2022/09/21 07:55:17;;;;;;;13.10;9.37;;;;;;;;;;5112979;27;20062;-69
2022/09/21 08:00:31;;;;;;;16.10;10.00;;;;;;;;;;5120571;27;20038;-69
2022/09/21 08:02:56;;;;;;;18.42;9.77;;;;;;;;;;5123526;27;20438;-67
2022/09/21 08:05:21;;;;;;;15.80;9.97;;;;;;;;;;5123830;27;20084;-67
2022/09/21 08:07:47;;;;;;;13.40;9.67;;;;;;;;;;5120750;27;20096;-69
2022/09/21 08:10:12;;;;;;;13.15;7.88;;;;;;;;;;5107572;27;20027;-69
2022/09/21 08:12:37;;;;;;;11.05;7.55;;;;;;;;;;5120844;27;20050;-68
2022/09/21 08:15:03;;;;;;;11.73;7.00;;;;;;;;;;5122239;27;20148;-67
2022/09/21 08:17:28;;;;;;;8.18;6.43;;;;;;;;;;5120198;27;20043;-65
2022/09/21 08:19:54;;;;;;;7.35;5.50;;;;;;;;;;5125151;27;20031;-69
2022/09/21 08:22:25;;;;;;;10.68;5.93;;;;;;;;;;5115267;27;20046;-67
2022/09/21 08:24:51;;;;;;;6.35;5.10;;;;;;;;;;5119715;27;20035;-67
2022/09/21 08:27:17;;;;;;;7.25;5.93;;;;;;;;;;5119171;27;20039;-68
2022/09/21 08:29:42;;;;;;;8.32;6.00;;;;;;;;;;5121701;27;20111;-67
2022/09/21 08:32:07;;;;;;;8.32;6.13;;;;;;;;;;5119281;27;20023;-67
2022/09/21 08:34:33;;;;;;;8.32;5.65;;;;;;;;;;5118737;27;20015;-66
2022/09/21 08:36:59;;;;;;;6.97;5.43;;;;;;;;;;5103318;27;20030;-69
2022/09/21 08:39:24;;;;;;;10.18;5.88;;;;;;;;;;5120129;27;20031;-67
2022/09/21 08:41:55;;;;;;;9.47;6.00;;;;;;;;;;5122075;27;20023;-67
2022/09/21 08:44:23;;;;;;;9.77;5.70;;;;;;;;;;5119802;27;20631;-67
2022/09/21 08:46:56;;;;;;;9.07;6.00;;;;;;;;;;5114509;27;20102;-66
2022/09/21 08:49:24;;;;;;;7.30;5.70;;;;;;;;;;5124255;27;20384;-67
2022/09/21 08:51:51;;;;;;;10.00;7.40;;;;;;;;;;5112552;27;20034;-67
2022/09/21 08:54:35;;;;;;;9.32;7.10;;;;;;;;;;5118888;27;20094;-69
2022/09/21 08:57:00;;;;;;;11.45;7.70;;;;;;;;;;5119553;27;20027;-68
2022/09/21 08:59:26;;;;;;;9.67;7.43;;;;;;;;;;5106019;27;20110;-69
2022/09/21 09:02:00;;;;;;;10.80;7.22;;;;;;;;;;5117387;27;20473;-68
2022/09/21 09:04:29;;;;;;;10.23;7.85;;;;;;;;;;5119843;27;20049;-67
2022/09/21 09:06:58;;;;;;;14.77;7.82;;;;;;;;;;5120129;27;20042;-67
2022/09/21 09:09:39;;;;;;;11.18;7.45;;;;;;;;;;5118090;27;20381;-68
2022/09/21 09:12:20;;;;;;;12.23;7.45;;;;;;;;;;5118626;27;20041;-68
2022/09/21 09:14:48;;;;;;;12.70;7.53;;;;;;;;;;5118450;27;20023;-67
2022/09/21 09:17:21;;;;;;;12.18;8.40;;;;;;;;;;5106700;27;20160;-69
2022/09/21 09:19:54;;;;;;;11.02;7.70;;;;;;;;;;5122507;27;20385;-68
2022/09/21 09:22:31;;;;;;;11.35;7.63;;;;;;;;;;5116668;27;20036;-68
2022/09/21 09:25:00;;;;;;;14.20;7.55;;;;;;;;;;5117161;27;20091;-68
2022/09/21 09:27:25;;;;;;;9.82;7.55;;;;;;;;;;5116099;27;20031;-68
2022/09/21 09:29:56;;;;;;;10.33;7.47;;;;;;;;;;5118859;27;20495;-68
2022/09/21 09:32:25;;;;;;;10.75;7.55;;;;;;;;;;5115238;27;20031;-68
2022/09/21 09:34:54;;;;;;;12.15;8.05;;;;;;;;;;5106465;27;20027;-68
2022/09/21 09:37:23;;;;;;;12.18;8.30;;;;;;;;;;5120133;27;20028;-67
2022/09/21 09:39:53;;;;;;;9.00;7.03;;;;;;;;;;5104966;28;20031;-68
2022/09/21 09:42:21;;;;;;;9.68;7.72;;;;;;;;;;5115813;27;20031;-68
2022/09/21 09:44:47;;;;;;;11.18;8.18;;;;;;;;;;5113098;27;20024;-68
2022/09/21 09:47:25;;;;;;;15.07;9.80;;;;;;;;;;5119682;27;20027;-68
2022/09/21 09:49:56;;;;;;;11.05;8.30;;;;;;;;;;5097018;27;20035;-68
2022/09/21 09:52:21;;;;;;;9.18;7.13;;;;;;;;;;5112157;27;20034;-72
2022/09/21 09:54:47;;;;;;;9.83;6.90;;;;;;;;;;5106109;27;20019;-74
2022/09/21 09:57:13;;;;;;;10.00;7.75;;;;;;;;;;5117397;27;20278;-74
2022/09/21 09:59:47;;;;;;;12.57;8.18;;;;;;;;;;5115289;27;20027;-74
2022/09/21 10:02:20;;;;;;;12.85;8.68;;;;;;;;;;5105257;27;20467;-74
2022/09/21 10:05:05;;;;;;;16.92;8.18;;;;;;;;;;5119720;27;20034;-73
2022/09/21 10:07:48;;;;;;;12.88;8.45;;;;;;;;;;5118103;27;20029;-73
2022/09/21 10:10:20;;;;;;;11.10;8.27;;;;;;;;;;5115534;27;20135;-73
2022/09/21 10:12:45;;;;;;;11.88;7.05;;;;;;;;;;5114652;27;20039;-74
2022/09/21 10:15:11;;;;;;;9.55;7.13;;;;;;;;;;5108089;27;20393;-74
2022/09/21 10:17:36;;;;;;;9.90;7.50;;;;;;;;;;5116901;27;20023;-74
2022/09/21 10:20:03;;;;;;;10.37;6.87;;;;;;;;;;5121259;27;20097;-74
2022/09/21 10:22:31;;;;;;;11.40;5.82;;;;;;;;;;5114770;27;20302;-73
2022/09/21 10:24:58;;;;;;;8.30;5.60;;;;;;;;;;5116665;27;20031;-73
2022/09/21 10:27:28;;;;;;;8.38;6.35;;;;;;;;;;5105322;28;20090;-74
2022/09/21 10:29:53;;;;;;;8.50;6.60;;;;;;;;;;5116883;27;20027;-73
2022/09/21 10:32:18;;;;;;;10.25;7.25;;;;;;;;;;5094664;27;20123;-72
2022/09/21 10:35:02;;;;;;;12.10;7.23;;;;;;;;;;5115022;28;20024;-72
2022/09/21 10:37:27;;;;;;;10.00;7.88;;;;;;;;;;5101850;28;20045;-71
2022/09/21 10:39:53;;;;;;;9.57;7.13;;;;;;;;;;5116377;28;20026;-71
2022/09/21 10:42:19;;;;;;;9.30;6.70;;;;;;;;;;5100305;28;20282;-70
2022/09/21 10:44:45;;;;;;;8.95;6.93;;;;;;;;;;5110539;28;20044;-71
2022/09/21 10:47:34;;;;;;;7.53;6.15;;;;;;;;;;5120002;28;20037;-71
2022/09/21 10:50:00;;;;;;;9.97;6.57;;;;;;;;;;5103656;28;20036;-72
2022/09/21 10:52:33;;;;;;;7.93;6.75;;;;;;;;;;5110617;28;20024;-72
2022/09/21 10:54:58;;;;;;;8.02;6.45;;;;;;;;;;5101952;28;20035;-72
2022/09/21 10:57:25;;;;;;;8.20;6.32;;;;;;;;;;5120123;28;20103;-72
2022/09/21 10:59:50;;;;;;;9.38;6.65;;;;;;;;;;5114339;28;20027;-73
2022/09/21 11:02:46;;;;;;;10.85;7.30;;;;;;;;;;5117199;28;20019;-72
2022/09/21 11:05:12;;;;;;;9.27;7.07;;;;;;;;;;5097434;28;20440;-73
2022/09/21 11:07:41;;;;;;;11.47;6.93;;;;;;;;;;5106756;28;20020;-73
2022/09/21 11:10:07;;;;;;;;;;;;;;;;;;5100830;28;20038;-71
2022/09/21 11:12:41;;;;;;;8.73;6.55;;;;;;;;;;5101702;28;19915;-73
2022/09/21 11:15:25;;;;;;;7.78;6.45;;;;;;;;;;5101190;28;20024;-73
2022/09/21 11:17:58;;;;;;;8.70;6.60;;;;;;;;;;5099812;28;20091;-75
2022/09/21 11:20:33;;;;;;;8.25;6.53;;;;;;;;;;5100288;28;20569;-75
2022/09/21 11:22:58;;;;;;;6.82;5.88;;;;;;;;;;5104040;28;20138;-73
2022/09/21 11:25:41;;;;;;;7.93;5.93;;;;;;;;;;5102953;28;20164;-73
2022/09/21 11:28:21;;;;;;;7.57;5.47;;;;;;;;;;5103748;28;20054;-73
2022/09/21 11:31:05;;;;;;;11.68;6.82;;;;;;;;;;5120324;28;20019;-72
2022/09/21 11:33:33;;;;;;;11.23;6.63;;;;;;;;;;5110708;28;20012;-73
2022/09/21 11:36:04;;;;;;;11.50;7.43;;;;;;;;;;5112003;28;20019;-72
2022/09/21 11:38:35;;;;;;;5.53;3.35;;;;;;;;;;5112902;28;20504;-72
2022/09/21 11:41:13;;;;;;;4.75;2.05;;;;;;;;;;5115077;27;20051;-73
2022/09/21 11:43:56;;;;;;;2.05;1.50;;;;;;;;;;5121868;27;20043;-74
2022/09/21 11:46:24;;;;;;;2.15;1.50;;;;;;;;;;5120740;27;20028;-73
2022/09/21 11:49:05;;;;;;;4.70;1.80;;;;;;;;;;5114667;27;20027;-72
2022/09/21 11:51:49;;;;;;;1.42;1.30;;;;;;;;;;5102727;27;20176;-73
2022/09/21 11:54:32;;;;;;;1.73;1.25;;;;;;;;;;5121004;27;20039;-72
2022/09/21 11:57:01;;;;;;;3.95;1.10;;;;;;;;;;5125386;27;20023;-73
2022/09/21 11:59:30;;;;;;;1.73;1.30;;;;;;;;;;5123420;27;20023;-72
2022/09/21 12:02:04;;;;;;;1.33;1.10;;;;;;;;;;5118973;27;20593;-73
2022/09/21 12:04:32;;;;;;;2.55;1.40;;;;;;;;;;5122098;27;20019;-73
2022/09/21 12:06:57;;;;;;;2.55;1.15;;;;;;;;;;5104956;27;20031;-73
2022/09/21 12:09:32;;;;;;;2.30;1.20;;;;;;;;;;5117925;27;20027;-73
2022/09/21 12:12:00;;;;;;;1.20;1.10;;;;;;;;;;5111280;27;20137;-73
2022/09/21 12:14:35;;;;;;;1.23;1.07;;;;;;;;;;5103275;27;20033;-72
2022/09/21 12:17:03;;;;;;;1.92;1.00;;;;;;;;;;5119605;27;20027;-73
2022/09/21 12:19:39;;;;;;;2.17;1.10;;;;;;;;;;5119039;27;20035;-71
2022/09/21 12:22:27;;;;;;;3.05;1.00;;;;;;;;;;5114211;27;20044;-70
2022/09/21 12:25:03;;;;;;;1.38;1.20;;;;;;;;;;5096178;27;20401;-70
2022/09/21 12:27:28;;;;;;;1.67;1.27;;;;;;;;;;5119541;27;20023;-71
2022/09/21 12:30:05;;;;;;;1.37;1.10;;;;;;;;;;5116671;27;20029;-70
2022/09/21 12:32:43;;;;;;;1.58;1.20;;;;;;;;;;5113133;27;20415;-71
2022/09/21 12:35:12;;;;;;;2.60;1.55;;;;;;;;;;5099283;28;20027;-71
2022/09/21 12:37:41;;;;;;;1.63;1.50;;;;;;;;;;5104688;27;20111;-71
2022/09/21 12:40:20;;;;;;;3.45;1.85;;;;;;;;;;5117985;27;20063;-71
2022/09/21 12:43:05;;;;;;;4.35;2.10;;;;;;;;;;5112353;27;20019;-72
2022/09/21 12:45:57;;;;;;;3.05;2.03;;;;;;;;;;5116041;27;20096;-72
2022/09/21 12:48:25;;;;;;;4.50;3.00;;;;;;;;;;5091958;27;20038;-67
2022/09/21 12:50:58;;;;;;;3.13;2.50;;;;;;;;;;5115107;27;20823;-67
2022/09/21 12:53:26;;;;;;;4.80;2.60;;;;;;;;;;5116137;27;20047;-67
2022/09/21 12:56:05;;;;;;;7.45;2.95;;;;;;;;;;5117626;27;20060;-71
2022/09/21 12:58:50;;;;;;;4.47;2.83;;;;;;;;;;5117503;27;20027;-71
2022/09/21 13:01:15;;;;;;;5.50;3.03;;;;;;;;;;5114815;27;20023;-72
2022/09/21 13:04:09;;;;;;;4.67;3.00;;;;;;;;;;5123070;27;20027;-72
2022/09/21 13:06:34;;;;;;;4.43;3.22;;;;;;;;;;5024865;28;20044;-72
2022/09/21 13:09:00;;;;;;;6.53;3.28;;;;;;;;;;5022286;28;20022;-71
2022/09/21 13:11:26;;;;;;;6.72;3.50;;;;;;;;;;5018365;28;20045;-71
2022/09/21 13:13:51;;;;;;;4.18;3.28;;;;;;;;;;5013235;28;20021;-71
2022/09/21 13:16:27;;;;;;;4.82;3.63;;;;;;;;;;5024039;28;20029;-72
2022/09/21 13:18:57;;;;;;;6.05;3.92;;;;;;;;;;5010606;28;20137;-72
2022/09/21 13:21:28;;;;;;;6.60;4.28;;;;;;;;;;5010942;28;20511;-72
2022/09/21 13:23:55;;;;;;;8.18;4.50;;;;;;;;;;5024217;28;20045;-72
2022/09/21 13:26:34;;;;;;;6.45;4.47;;;;;;;;;;5012611;28;20032;-71
2022/09/21 13:29:20;;;;;;;4.68;2.63;;;;;;;;;;5022818;28;20036;-70
2022/09/21 13:31:56;;;;;;;2.72;2.00;;;;;;;;;;5020856;28;20076;-72
2022/09/21 13:34:27;;;;;;;4.35;2.20;;;;;;;;;;5009411;28;20029;-71
2022/09/21 13:37:09;;;;;;;2.70;1.88;;;;;;;;;;5025636;28;20057;-71
2022/09/21 13:39:35;;;;;;;3.33;2.55;;;;;;;;;;5026794;28;20156;-70
2022/09/21 13:42:20;;;;;;;4.85;2.72;;;;;;;;;;5033555;27;20044;-71
2022/09/21 13:44:45;;;;;;;4.82;2.83;;;;;;;;;;5113765;27;20024;-70
2022/09/21 13:47:13;;;;;;;5.10;3.27;;;;;;;;;;5119690;27;20500;-71
2022/09/21 13:49:40;;;;;;;4.10;2.72;;;;;;;;;;5115988;27;20481;-70
2022/09/21 13:52:26;;;;;;;4.93;3.03;;;;;;;;;;5117880;27;20065;-71
2022/09/21 13:54:51;;;;;;;3.75;2.65;;;;;;;;;;5118674;27;20042;-71
2022/09/21 13:57:23;;;;;;;3.47;2.77;;;;;;;;;;5100203;27;20019;-69
2022/09/21 14:00:00;;;;;;;3.15;2.30;;;;;;;;;;5090262;27;20480;-70
2022/09/21 14:02:30;;;;;;;2.75;1.65;;;;;;;;;;5120111;27;20042;-70
2022/09/21 14:04:58;;;;;;;2.22;1.80;;;;;;;;;;5120642;27;20034;-70
2022/09/21 14:07:27;;;;;;;2.97;1.70;;;;;;;;;;5103627;28;20023;-70
2022/09/21 14:10:04;;;;;;;3.80;1.98;;;;;;;;;;5110872;28;20692;-71
2022/09/21 14:12:40;;;;;;;2.33;1.50;;;;;;;;;;5113943;27;20038;-70
2022/09/21 14:15:18;;;;;;;2.03;1.48;;;;;;;;;;5110577;27;20022;-71
2022/09/21 14:17:44;;;;;;;2.08;1.58;;;;;;;;;;5116141;27;20439;-72
2022/09/21 14:20:26;;;;;;;4.20;2.15;;;;;;;;;;5119078;27;20057;-71
2022/09/21 14:23:25;;;;;;;4.43;1.38;;;;;;;;;;5112954;27;20051;-72
2022/09/21 14:25:50;;;;;;;1.67;1.52;;;;;;;;;;5113004;27;20033;-73
2022/09/21 14:28:21;;;;;;;2.55;1.50;;;;;;;;;;5099384;28;20054;-72
2022/09/21 14:30:53;;;;;;;2.08;1.48;;;;;;;;;;5112148;27;20027;-72
2022/09/21 14:33:25;;;;;;;3.65;1.75;;;;;;;;;;5112600;28;20680;-73
2022/09/21 14:35:50;;;;;;;2.65;1.60;;;;;;;;;;5114114;27;20028;-72
2022/09/21 14:38:15;;;;;;;4.88;2.40;;;;;;;;;;5112171;27;20027;-71
2022/09/21 14:40:45;;;;;;;2.70;2.30;;;;;;;;;;5104801;28;20080;-72
2022/09/21 14:43:14;;;;;;;4.53;2.38;;;;;;;;;;5102562;28;20059;-70
2022/09/21 14:45:58;;;;;;;3.50;2.30;;;;;;;;;;5097155;28;20114;-71
2022/09/21 14:48:24;;;;;;;5.22;1.92;;;;;;;;;;5113315;28;20023;-68
2022/09/21 14:50:54;;;;;;;4.40;2.10;;;;;;;;;;5096003;28;20040;-68